Time;durP1;ratioP1;P1;durP2;ratioP2;P2;SDS_P1;SDS_P2;PMS_P1;PMS_P2;Temp;Humidity;BMP_temperature;BMP_pressure;BME280_temperature;BME280_humidity;BME280_pressure;Samples;Min_cycle;Max_cycle;Signal;HPM_P1;HPM_P2
2022/12/28 00:01:28;;;;;;;9.80;7.35;;;;;;;2.99;60.00;100155.34;5092585;28;20046;-75
2022/12/28 00:03:56;;;;;;;9.40;6.18;;;;;;;-16.68;58.72;96837.00;5090893;28;20216;-75
2022/12/28 00:06:25;;;;;;;10.10;6.45;;;;;;;-3.05;59.64;99135.19;5091563;28;20036;-75
2022/12/28 00:08:53;;;;;;;9.80;6.63;;;;;;;-15.78;58.85;96979.94;5090911;28;20115;-75
2022/12/28 00:11:22;;;;;;;8.45;6.28;;;;;;;2.21;59.84;100028.84;5091734;28;20032;-75
2022/12/28 00:13:49;;;;;;;8.07;5.93;;;;;;;3.52;59.84;100246.41;5090225;28;20040;-75
2022/12/28 00:16:23;;;;;;;8.73;5.88;;;;;;;3.54;59.93;100244.63;5089962;28;20108;-75
2022/12/28 00:18:52;;;;;;;10.35;5.97;;;;;;;3.50;59.79;100241.19;5091943;28;20062;-75
2022/12/28 00:21:19;;;;;;;11.45;6.32;;;;;;;3.50;59.91;100243.78;5091848;28;20103;-75
2022/12/28 00:23:49;;;;;;;10.57;6.28;;;;;;;3.51;59.87;100248.16;5091841;28;20044;-76
2022/12/28 00:26:16;;;;;;;9.23;6.38;;;;;;;1.50;59.78;99897.13;5090976;28;20032;-75
2022/12/28 00:28:43;;;;;;;9.50;6.50;;;;;;;3.52;59.79;100241.16;5091019;28;20044;-76
2022/12/28 00:31:09;;;;;;;11.02;5.82;;;;;;;3.52;59.69;100247.25;5091288;28;20044;-75
2022/12/28 00:33:36;;;;;;;9.10;6.63;;;;;;;3.55;59.60;100238.50;5089895;28;20050;-76
2022/12/28 00:36:06;;;;;;;8.98;6.22;;;;;;;3.57;59.71;100238.47;5090816;28;20059;-76
2022/12/28 00:38:36;;;;;;;9.85;7.15;;;;;;;3.57;59.59;100235.84;5090224;28;20067;-75
2022/12/28 00:41:03;;;;;;;9.02;6.80;;;;;;;3.57;59.54;100236.72;5074491;28;20060;-75
2022/12/28 00:43:30;;;;;;;10.52;7.28;;;;;;;3.58;59.59;100240.22;5089766;28;20044;-76
2022/12/28 00:45:57;;;;;;;8.98;6.45;;;;;;;3.60;59.52;100235.81;5088763;28;20123;-76
2022/12/28 00:48:24;;;;;;;8.65;6.25;;;;;;;3.58;59.58;100242.84;5089893;28;20047;-76
2022/12/28 00:50:51;;;;;;;8.75;6.45;;;;;;;3.57;59.78;100239.34;5089577;28;20328;-76
2022/12/28 00:53:20;;;;;;;10.40;6.72;;;;;;;3.55;59.73;100246.34;5072934;28;20293;-75
2022/12/28 00:55:47;;;;;;;12.63;8.55;;;;;;;3.55;59.55;100238.50;5088012;28;20056;-75
2022/12/28 00:58:14;;;;;;;14.52;8.77;;;;;;;3.53;59.70;100238.50;5087821;28;20047;-75
2022/12/28 01:00:42;;;;;;;10.23;7.78;;;;;;;2.09;59.68;99987.16;5089522;28;20044;-75
2022/12/28 01:03:17;;;;;;;11.35;8.52;;;;;;;-2.99;59.69;99361.59;5074298;28;20041;-76
2022/12/28 01:05:43;;;;;;;10.65;7.32;;;;;;;2.50;59.61;100059.06;5089769;28;20041;-76
2022/12/28 01:08:12;;;;;;;9.82;7.70;;;;;;;0.66;59.56;99773.47;5089084;28;20039;-76
2022/12/28 01:10:41;;;;;;;9.50;6.15;;;;;;;-2.38;59.60;99236.91;5090764;28;20036;-75
2022/12/28 01:13:08;;;;;;;9.48;7.20;;;;;;;1.64;59.74;99922.28;5089738;28;20044;-76
2022/12/28 01:15:35;;;;;;;10.00;6.38;;;;;;;3.51;59.85;100234.19;5090754;28;20055;-76
2022/12/28 01:18:02;;;;;;;10.13;7.38;;;;;;;-3.66;59.49;99011.00;5073863;28;20033;-75
2022/12/28 01:20:29;;;;;;;8.30;6.60;;;;;;;3.48;59.88;100229.84;5073524;28;20074;-75
2022/12/28 01:22:56;;;;;;;8.30;6.22;;;;;;;1.52;59.79;99904.94;5090374;28;20040;-76
2022/12/28 01:25:23;;;;;;;9.13;6.57;;;;;;;-5.27;59.42;98745.88;5090142;28;20040;-76
2022/12/28 01:27:51;;;;;;;6.32;5.38;;;;;;;0.89;59.75;99790.66;5089798;28;20071;-76
2022/12/28 01:30:18;;;;;;;6.20;5.38;;;;;;;-2.34;59.61;99349.38;5092550;28;20040;-76
2022/12/28 01:32:45;;;;;;;7.88;5.57;;;;;;;-10.93;59.19;97840.69;5092709;28;20045;-76
2022/12/28 01:35:12;;;;;;;9.25;6.03;;;;;;;-2.62;59.73;99196.38;5094369;28;20051;-76
2022/12/28 01:37:39;;;;;;;6.97;5.22;;;;;;;0.34;59.89;99701.59;5093924;28;20037;-76
2022/12/28 01:40:07;;;;;;;8.10;5.93;;;;;;;-10.32;59.18;98325.09;5076921;28;20055;-76
2022/12/28 01:42:38;;;;;;;7.47;5.05;;;;;;;-14.46;59.05;97303.06;5093377;28;20040;-76
2022/12/28 01:45:17;;;;;;;7.97;6.13;;;;;;;-3.07;60.20;99122.22;5094039;28;20051;-76
2022/12/28 01:47:46;;;;;;;7.25;5.55;;;;;;;3.27;60.40;100217.00;5093077;28;20033;-76
2022/12/28 01:50:17;;;;;;;6.32;5.18;;;;;;;3.23;60.50;100210.06;5093437;28;20066;-75
2022/12/28 01:52:48;;;;;;;7.70;5.75;;;;;;;3.24;60.22;100240.63;5093651;28;20048;-76
2022/12/28 01:55:18;;;;;;;10.63;6.38;;;;;;;-1.98;60.08;99327.56;5093392;28;20040;-76
2022/12/28 01:57:51;;;;;;;10.80;7.10;;;;;;;3.14;60.42;100197.06;5093128;28;20052;-75
2022/12/28 02:00:20;;;;;;;10.60;7.68;;;;;;;3.19;60.35;100205.75;5091806;28;20045;-76
2022/12/28 02:02:53;;;;;;;11.65;8.38;;;;;;;0.99;60.33;99868.88;5092681;28;20051;-76
2022/12/28 02:05:23;;;;;;;9.57;6.97;;;;;;;-4.01;60.01;98993.00;5092010;28;20056;-75
2022/12/28 02:07:54;;;;;;;12.15;7.20;;;;;;;3.11;60.80;100205.84;5091946;28;20224;-75
2022/12/28 02:10:23;;;;;;;11.05;7.60;;;;;;;3.09;60.41;100191.88;5092008;28;20119;-75
2022/12/28 02:12:51;;;;;;;11.85;8.90;;;;;;;3.05;60.65;100191.94;5092256;28;20041;-75
2022/12/28 02:15:18;;;;;;;12.55;6.90;;;;;;;2.43;60.79;100112.34;5075756;28;20111;-75
2022/12/28 02:17:46;;;;;;;10.57;7.82;;;;;;;1.51;61.03;99926.72;5091768;28;20047;-75
2022/12/28 02:20:16;;;;;;;11.93;8.38;;;;;;;-4.77;60.55;98867.25;5091638;28;20056;-75
2022/12/28 02:23:11;;;;;;;11.77;8.73;;;;;;;2.91;62.08;100178.13;5091806;28;20045;-75
2022/12/28 02:26:11;;;;;;;10.98;7.07;;;;;;;2.92;62.24;100164.16;5073785;28;20094;-75
2022/12/28 02:29:15;;;;;;;9.38;7.65;;;;;;;2.92;62.01;100156.31;5074211;28;20063;-75
2022/12/28 02:31:53;;;;;;;11.10;7.30;;;;;;;1.27;61.28;99935.66;5090439;28;20083;-74
2022/12/28 02:34:29;;;;;;;9.98;7.53;;;;;;;2.19;61.51;100032.38;5074343;28;20277;-75
2022/12/28 02:37:11;;;;;;;10.27;7.38;;;;;;;2.82;61.85;100135.47;5091514;28;20044;-74
2022/12/28 02:39:42;;;;;;;11.00;6.80;;;;;;;2.77;61.44;100142.50;5090594;28;20046;-75
2022/12/28 02:42:11;;;;;;;8.75;6.43;;;;;;;2.79;61.14;100145.97;5091956;28;20241;-75
2022/12/28 02:50:19;;;;;;;9.52;6.13;;;;;;;1.26;61.27;99879.94;5094695;28;20127;-75
2022/12/28 02:53:32;;;;;;;7.85;5.38;;;;;;;2.73;62.20;100119.88;5093819;28;20040;-74
2022/12/28 02:56:33;;;;;;;10.63;6.20;;;;;;;1.99;61.79;99998.59;5057204;28;20149;-75
2022/12/28 02:59:33;;;;;;;8.73;5.28;;;;;;;2.71;62.13;100124.25;5094019;28;20041;-74
2022/12/28 03:02:15;;;;;;;7.47;5.43;;;;;;;2.69;61.64;100118.16;5092806;28;20056;-76
2022/12/28 03:05:13;;;;;;;8.52;5.80;;;;;;;-1.73;61.73;99446.06;5095583;28;20044;-75
2022/12/28 03:10:41;;;;;;;7.10;5.63;;;;;;;0.08;61.22;99683.56;5093067;28;20053;-75
2022/12/28 03:15:58;;;;;;;9.43;5.57;;;;;;;-5.20;60.74;98763.09;5079120;28;20079;-76
2022/12/28 03:32:27;;;;;;;8.43;5.78;;;;;;;2.60;61.43;100089.47;5094326;28;20060;-76
2022/12/28 03:34:54;;;;;;;8.82;6.38;;;;;;;2.57;61.46;100078.19;5092446;28;20108;-75
2022/12/28 03:37:32;;;;;;;6.88;5.40;;;;;;;-0.98;61.74;99476.03;5093758;28;20235;-75
2022/12/28 03:40:06;;;;;;;9.02;5.82;;;;;;;2.54;61.85;100079.06;5091976;28;20064;-75
2022/12/28 03:45:31;;;;;;;8.55;6.05;;;;;;;2.51;61.75;100089.59;5090364;28;20111;-75
2022/12/28 03:47:59;;;;;;;;;;;;;;;2.44;62.70;100090.53;5090302;28;20090;-75
2022/12/28 03:50:26;;;;;;;8.05;5.43;;;;;;;2.42;61.80;100082.69;5088892;28;19917;-74
2022/12/28 03:52:55;;;;;;;8.68;6.07;;;;;;;2.41;61.67;100072.25;5089909;28;20041;-75
2022/12/28 03:55:22;;;;;;;6.95;5.35;;;;;;;2.42;61.58;100059.16;5090792;28;20204;-74
2022/12/28 03:57:48;;;;;;;6.75;5.00;;;;;;;2.41;61.81;100056.56;5089569;28;20071;-75
2022/12/28 04:00:15;;;;;;;8.43;5.40;;;;;;;2.38;61.86;100051.34;5088201;28;20250;-74
2022/12/28 04:02:43;;;;;;;8.52;5.97;;;;;;;-1.00;61.54;99476.03;5087820;28;20047;-74
2022/12/28 04:05:11;;;;;;;5.90;4.35;;;;;;;2.33;62.22;100038.31;5090329;28;20086;-75
2022/12/28 04:07:37;;;;;;;6.78;5.07;;;;;;;2.29;61.95;100047.09;5090479;28;20044;-75
2022/12/28 04:10:07;;;;;;;9.80;5.55;;;;;;;2.28;62.12;100050.59;5090433;28;20060;-75
2022/12/28 04:12:34;;;;;;;7.00;5.13;;;;;;;2.32;61.88;100043.56;5088922;28;20055;-75
2022/12/28 04:15:01;;;;;;;7.60;5.53;;;;;;;2.31;61.88;100041.84;5089152;28;20048;-75
2022/12/28 04:17:29;;;;;;;10.27;4.93;;;;;;;2.30;62.13;100048.81;5090961;28;20044;-75
2022/12/28 04:19:56;;;;;;;7.15;5.53;;;;;;;2.32;62.02;100040.94;5092936;28;20044;-75
2022/12/28 04:22:22;;;;;;;8.00;5.75;;;;;;;2.31;62.04;100034.84;5090404;28;20044;-75
2022/12/28 04:24:49;;;;;;;8.75;5.80;;;;;;;2.29;62.11;100028.78;5090750;28;20082;-75
2022/12/28 04:27:18;;;;;;;9.93;6.07;;;;;;;2.11;62.17;99994.97;5075103;28;20048;-75
2022/12/28 04:29:45;;;;;;;8.23;6.70;;;;;;;2.28;62.23;100029.66;5092299;28;20200;-75
2022/12/28 04:32:11;;;;;;;8.07;5.65;;;;;;;2.28;62.20;100023.56;5090119;28;20052;-75
2022/12/28 04:34:38;;;;;;;8.60;5.25;;;;;;;2.28;62.23;100026.19;5089780;28;20044;-75
2022/12/28 04:37:05;;;;;;;7.03;5.18;;;;;;;2.30;62.09;100027.91;5090421;28;20070;-75
2022/12/28 04:39:32;;;;;;;7.63;5.95;;;;;;;0.16;62.10;99713.03;5090235;28;20044;-75
2022/12/28 04:41:59;;;;;;;11.55;4.88;;;;;;;0.65;62.07;99746.53;5090944;28;20032;-75
2022/12/28 04:44:27;;;;;;;7.68;5.85;;;;;;;-4.95;61.77;98789.75;5092342;28;20081;-75
2022/12/28 04:46:56;;;;;;;7.13;5.13;;;;;;;0.64;62.16;99731.75;5092291;28;20216;-75
2022/12/28 04:49:23;;;;;;;7.07;5.07;;;;;;;-3.74;61.88;98992.91;5092698;28;20037;-75
2022/12/28 04:51:50;;;;;;;6.45;4.95;;;;;;;2.20;62.35;99997.50;5092456;28;20115;-75
2022/12/28 04:54:17;;;;;;;6.90;4.85;;;;;;;2.15;62.51;99984.47;5092705;28;20047;-75
2022/12/28 04:56:44;;;;;;;9.57;5.63;;;;;;;1.16;62.54;99825.22;5092086;28;20060;-75
2022/12/28 04:59:10;;;;;;;8.63;5.00;;;;;;;2.14;62.73;99985.34;5091592;28;20095;-75
2022/12/28 05:01:39;;;;;;;7.88;5.35;;;;;;;2.12;62.30;100272.16;5091673;28;20041;-75
2022/12/28 05:04:06;;;;;;;8.68;5.55;;;;;;;2.06;62.57;99989.78;5092027;28;20047;-75
2022/12/28 05:06:33;;;;;;;6.15;4.85;;;;;;;-5.82;62.03;98696.03;5093473;28;20051;-75
2022/12/28 05:09:00;;;;;;;7.57;4.80;;;;;;;2.03;62.56;99989.81;5093179;28;20040;-75
2022/12/28 05:11:29;;;;;;;6.72;4.75;;;;;;;2.04;62.55;99988.09;5092531;28;20042;-75
2022/12/28 05:13:55;;;;;;;9.20;5.82;;;;;;;2.05;62.59;99989.81;5092528;28;20288;-75
2022/12/28 05:16:24;;;;;;;6.97;4.85;;;;;;;2.05;62.58;99984.59;5092808;28;20040;-75
2022/12/28 05:18:52;;;;;;;6.30;4.90;;;;;;;-2.33;62.12;99518.09;5092410;28;20074;-75
2022/12/28 05:21:21;;;;;;;8.45;5.75;;;;;;;2.04;62.49;99980.25;5093224;28;20040;-75
2022/12/28 05:23:48;;;;;;;9.95;5.38;;;;;;;-0.66;62.26;99518.31;5075373;28;20063;-75
2022/12/28 05:26:18;;;;;;;7.28;5.07;;;;;;;2.02;62.39;99972.41;5092433;28;20044;-75
2022/12/28 05:28:44;;;;;;;6.35;4.57;;;;;;;1.51;62.45;100083.47;5093070;28;20036;-75
2022/12/28 05:31:13;;;;;;;8.32;5.03;;;;;;;-0.14;62.32;99651.59;5092487;28;20075;-75
2022/12/28 05:33:41;;;;;;;8.23;5.70;;;;;;;1.98;62.49;99967.22;5092310;28;20062;-75
2022/12/28 05:36:12;;;;;;;8.05;5.82;;;;;;;1.95;62.67;99970.75;5092219;28;20042;-75
2022/12/28 05:38:39;;;;;;;8.38;5.90;;;;;;;1.94;62.60;99968.16;5092655;28;20036;-75
2022/12/28 05:41:07;;;;;;;9.40;5.03;;;;;;;0.57;62.36;99741.38;5092307;28;20042;-75
2022/12/28 05:43:34;;;;;;;9.52;5.18;;;;;;;-0.22;62.52;99600.41;5092301;28;20040;-75
2022/12/28 05:46:03;;;;;;;5.90;4.97;;;;;;;1.87;62.75;99962.13;5092649;28;20040;-75
2022/12/28 05:48:32;;;;;;;7.13;5.25;;;;;;;1.87;62.76;99967.34;5075896;28;20044;-75
2022/12/28 05:51:01;;;;;;;7.53;5.55;;;;;;;1.88;62.59;99958.63;5075886;28;20036;-75
2022/12/28 05:53:31;;;;;;;7.40;5.25;;;;;;;1.87;62.56;99962.13;5093719;28;20090;-76
2022/12/28 05:56:03;;;;;;;8.55;5.28;;;;;;;1.13;62.72;99883.53;5092050;28;20052;-75
2022/12/28 05:58:31;;;;;;;10.00;6.22;;;;;;;1.89;62.67;99970.81;5076275;28;20036;-75
2022/12/28 06:01:07;;;;;;;15.18;10.00;;;;;;;1.84;63.21;99970.84;5092927;28;20044;-75
2022/12/28 06:03:34;;;;;;;23.17;13.55;;;;;;;1.25;62.62;99911.28;5091766;28;20045;-75
2022/12/28 06:06:09;;;;;;;26.13;16.77;;;;;;;-7.06;62.79;98460.56;5093826;28;20074;-75
2022/12/28 06:08:38;;;;;;;;;;;;;;;1.75;64.09;99963.09;5093346;28;20040;-75
2022/12/28 06:11:07;;;;;;;21.30;14.85;;;;;;;1.75;63.00;99970.94;5093152;28;19916;-75
2022/12/28 06:13:34;;;;;;;21.15;13.55;;;;;;;-0.22;62.71;99695.06;5093839;28;20032;-75
2022/12/28 06:16:06;;;;;;;20.15;14.52;;;;;;;-1.38;62.91;99412.09;5096309;28;20239;-75
2022/12/28 06:18:33;;;;;;;16.08;10.75;;;;;;;-1.28;62.61;99479.66;5097169;28;20301;-75
2022/12/28 06:21:02;;;;;;;16.65;10.38;;;;;;;1.83;62.73;99965.63;5097208;28;20044;-75
2022/12/28 06:23:29;;;;;;;14.85;9.52;;;;;;;1.81;62.66;99965.66;5062267;28;20123;-75
2022/12/28 06:25:59;;;;;;;15.25;9.63;;;;;;;-7.61;62.37;98353.25;5096005;28;20059;-75
2022/12/28 06:28:26;;;;;;;14.35;8.98;;;;;;;0.46;62.79;99731.91;5095974;28;20045;-75
2022/12/28 06:31:02;;;;;;;13.35;7.57;;;;;;;1.79;63.45;99959.56;5096198;28;20044;-75
2022/12/28 06:33:29;;;;;;;9.95;6.30;;;;;;;1.20;62.91;99880.00;5079206;28;20056;-75
2022/12/28 06:35:56;;;;;;;8.93;7.05;;;;;;;-4.13;62.23;98972.31;5095498;28;20041;-75
2022/12/28 06:38:28;;;;;;;8.57;5.57;;;;;;;1.80;62.92;99963.06;5096011;28;20052;-75
2022/12/28 06:40:55;;;;;;;12.07;5.38;;;;;;;1.77;62.87;99958.72;5095939;28;20040;-76
2022/12/28 06:43:23;;;;;;;10.90;5.53;;;;;;;-5.12;62.47;98784.63;5095490;28;20040;-75
2022/12/28 06:45:56;;;;;;;8.38;5.05;;;;;;;-0.16;63.33;99634.25;5096055;28;20048;-75
2022/12/28 06:48:23;;;;;;;8.80;5.32;;;;;;;-5.38;62.20;98941.34;5096205;28;20044;-76
2022/12/28 06:50:57;;;;;;;6.43;5.68;;;;;;;-1.39;63.09;99430.31;5096072;28;20070;-75
2022/12/28 06:53:24;;;;;;;7.10;5.78;;;;;;;1.77;62.79;99943.03;5096090;28;20059;-75
2022/12/28 06:55:55;;;;;;;9.90;5.95;;;;;;;-4.57;62.75;98864.63;5095360;28;20048;-75
2022/12/28 06:58:24;;;;;;;6.80;5.47;;;;;;;-0.09;62.66;99643.75;5095187;28;20049;-75
2022/12/28 07:00:51;;;;;;;6.93;5.80;;;;;;;-4.08;62.51;98939.53;5095730;28;20062;-75
2022/12/28 07:03:19;;;;;;;9.60;6.45;;;;;;;1.79;62.81;99935.19;5094817;28;20036;-75
2022/12/28 07:05:46;;;;;;;10.93;7.00;;;;;;;-6.12;62.51;98591.13;5095135;28;20071;-75
2022/12/28 07:08:13;;;;;;;9.27;6.10;;;;;;;1.77;63.05;99934.34;5078957;28;20040;-76
2022/12/28 07:10:40;;;;;;;8.70;6.47;;;;;;;1.79;63.06;99927.34;5095803;28;20036;-75
2022/12/28 07:13:07;;;;;;;7.55;6.20;;;;;;;1.79;63.17;99923.00;5096297;28;20032;-75
2022/12/28 07:15:36;;;;;;;7.47;5.28;;;;;;;-1.63;63.07;99342.09;5078427;28;20045;-75
2022/12/28 07:18:04;;;;;;;9.23;6.10;;;;;;;-0.69;63.04;99500.09;5096416;28;20032;-75
2022/12/28 07:20:31;;;;;;;10.30;5.85;;;;;;;-0.75;62.83;99763.88;5096049;28;20378;-75
2022/12/28 07:22:57;;;;;;;8.23;5.90;;;;;;;-1.82;62.73;99529.25;5095407;28;20112;-75
2022/12/28 07:25:24;;;;;;;11.35;7.05;;;;;;;-0.66;62.95;99497.47;5077770;28;20145;-75
2022/12/28 07:27:51;;;;;;;11.25;5.93;;;;;;;1.91;62.99;99911.53;5094035;28;20040;-75
2022/12/28 07:30:18;;;;;;;9.10;6.25;;;;;;;-8.06;62.07;98207.47;5095092;28;20048;-75
2022/12/28 07:32:46;;;;;;;10.00;5.40;;;;;;;1.95;63.06;99917.59;5078292;28;20057;-76
2022/12/28 07:35:13;;;;;;;11.27;5.88;;;;;;;0.97;62.91;99734.91;5094425;28;20074;-76
2022/12/28 07:37:40;;;;;;;9.00;5.70;;;;;;;-10.84;62.14;97739.22;5077448;28;20036;-75
2022/12/28 07:40:08;;;;;;;12.98;5.50;;;;;;;-3.76;62.72;98932.47;5094272;28;20082;-76
2022/12/28 07:42:35;;;;;;;8.15;5.00;;;;;;;2.04;62.98;99917.50;5094460;28;20044;-75
2022/12/28 07:45:02;;;;;;;8.38;6.32;;;;;;;-1.02;62.90;99391.91;5095283;28;20052;-75
2022/12/28 07:47:29;;;;;;;9.48;5.72;;;;;;;2.08;63.13;99913.94;5095493;28;20040;-75
2022/12/28 07:49:57;;;;;;;9.52;6.00;;;;;;;2.11;63.21;99914.78;5093581;28;20101;-75
2022/12/28 07:52:24;;;;;;;7.32;5.72;;;;;;;2.11;63.12;99917.41;5094521;28;20064;-75
2022/12/28 07:54:51;;;;;;;9.23;5.85;;;;;;;1.46;63.37;99814.44;5094734;28;20040;-76
2022/12/28 07:57:18;;;;;;;10.77;7.28;;;;;;;-4.81;62.95;98746.63;5092029;28;20036;-76
2022/12/28 07:59:44;;;;;;;8.45;6.80;;;;;;;2.15;63.10;99924.31;5093404;28;20037;-75
2022/12/28 08:02:11;;;;;;;8.20;5.78;;;;;;;0.14;62.96;99576.66;5093274;28;20055;-75
2022/12/28 08:04:38;;;;;;;7.63;5.60;;;;;;;-2.78;62.76;99079.72;5092797;28;20044;-75
2022/12/28 08:07:06;;;;;;;9.20;5.68;;;;;;;-1.24;62.87;99339.19;5091880;28;20040;-75
2022/12/28 08:09:33;;;;;;;7.95;6.38;;;;;;;-2.86;62.75;99058.16;5074711;28;20036;-76
2022/12/28 08:12:01;;;;;;;7.82;5.72;;;;;;;2.28;62.95;99930.25;5091634;28;20183;-76
2022/12/28 08:14:29;;;;;;;8.10;5.57;;;;;;;2.31;63.07;99927.63;5091098;28;20040;-76
2022/12/28 08:16:56;;;;;;;7.75;5.63;;;;;;;0.58;62.95;99640.53;5091533;28;20285;-75
2022/12/28 08:19:23;;;;;;;8.85;6.43;;;;;;;2.34;63.15;99932.81;5091047;28;20044;-75
2022/12/28 08:21:50;;;;;;;10.38;7.25;;;;;;;2.36;63.13;99935.41;5091498;28;20236;-75
2022/12/28 08:24:19;;;;;;;10.48;8.65;;;;;;;1.37;63.36;99764.94;5091408;28;20036;-75
2022/12/28 08:26:47;;;;;;;11.55;9.00;;;;;;;0.63;63.31;99637.88;5091438;28;20048;-76
2022/12/28 08:29:16;;;;;;;12.88;8.90;;;;;;;1.31;63.38;99744.09;5091250;28;20044;-75
2022/12/28 08:31:45;;;;;;;17.95;10.90;;;;;;;2.50;63.78;99933.47;5074120;28;20040;-76
2022/12/28 08:34:14;;;;;;;15.65;9.48;;;;;;;0.71;63.77;99636.91;5091189;28;20064;-75
2022/12/28 08:36:41;;;;;;;15.50;9.60;;;;;;;2.53;64.08;99936.91;5089599;28;20048;-75
2022/12/28 08:39:09;;;;;;;16.08;11.10;;;;;;;-0.55;64.21;99670.09;5090542;28;20033;-75
2022/12/28 08:41:37;;;;;;;14.30;10.63;;;;;;;0.18;64.12;99779.06;5090037;28;20060;-75
2022/12/28 08:44:05;;;;;;;14.02;11.00;;;;;;;0.11;63.95;99540.19;5090415;28;20082;-75
2022/12/28 08:46:33;;;;;;;13.65;10.23;;;;;;;2.62;64.18;99953.38;5089579;28;20103;-75
2022/12/28 08:49:01;;;;;;;19.35;10.45;;;;;;;0.80;63.96;99639.41;5089583;28;20040;-75
2022/12/28 08:51:31;;;;;;;12.85;9.73;;;;;;;-0.31;63.84;99764.56;5089321;28;20062;-75
2022/12/28 08:53:58;;;;;;;16.40;10.05;;;;;;;1.72;64.09;99785.44;5089396;28;20058;-75
2022/12/28 08:56:27;;;;;;;13.60;10.00;;;;;;;2.23;64.19;99887.63;5089234;28;20055;-76
2022/12/28 08:58:56;;;;;;;13.50;11.18;;;;;;;2.79;64.21;99965.34;5089627;28;20040;-75
2022/12/28 09:01:24;;;;;;;17.00;11.60;;;;;;;0.02;63.89;99493.38;5090054;28;20040;-76
2022/12/28 09:03:53;;;;;;;16.08;10.10;;;;;;;2.96;64.18;99967.72;5089888;28;20055;-76
2022/12/28 09:06:23;;;;;;;16.00;11.00;;;;;;;2.84;64.32;99912.91;5089210;28;20040;-75
2022/12/28 09:08:51;;;;;;;17.08;10.90;;;;;;;3.25;63.56;99946.31;5089720;28;20044;-75
2022/12/28 09:11:18;;;;;;;14.65;11.20;;;;;;;3.44;63.82;99945.13;5088494;28;20055;-75
2022/12/28 09:13:45;;;;;;;13.13;10.70;;;;;;;3.68;63.40;99948.22;5089179;28;20036;-75
2022/12/28 09:16:15;;;;;;;15.90;10.88;;;;;;;3.39;63.01;99891.94;5088507;28;20040;-75
2022/12/28 09:18:44;;;;;;;13.20;9.98;;;;;;;4.13;62.57;99952.59;5089145;28;20032;-76
2022/12/28 09:21:15;;;;;;;13.48;9.27;;;;;;;4.35;62.11;99939.09;5088162;28;20208;-75
2022/12/28 09:23:43;;;;;;;14.25;9.75;;;;;;;4.52;61.73;99933.47;5072420;28;20319;-75
2022/12/28 09:26:11;;;;;;;11.63;10.05;;;;;;;4.70;61.20;99949.69;5087358;28;20037;-75
2022/12/28 09:28:38;;;;;;;15.27;9.90;;;;;;;4.83;60.77;99942.41;5087362;28;20041;-75
2022/12/28 09:31:06;;;;;;;11.40;9.77;;;;;;;5.00;60.64;99936.81;5087795;28;20097;-75
2022/12/28 09:36:19;;;;;;;11.95;10.00;;;;;;;5.08;59.75;99898.94;5087696;28;20116;-75
2022/12/28 09:38:46;;;;;;;12.20;10.02;;;;;;;5.35;59.57;99936.81;5087005;28;20043;-75
2022/12/28 09:41:23;;;;;;;12.40;10.80;;;;;;;5.22;59.28;99910.88;5087436;28;20178;-75
2022/12/28 09:43:53;;;;;;;11.80;9.00;;;;;;;5.41;59.58;99939.31;5087116;28;20052;-75
2022/12/28 09:46:22;;;;;;;13.35;9.80;;;;;;;5.43;59.17;99931.38;5087435;28;20047;-75
2022/12/28 09:48:56;;;;;;;10.18;9.18;;;;;;;5.44;58.80;99922.59;5087325;28;20036;-76
2022/12/28 09:51:32;;;;;;;12.75;9.23;;;;;;;5.38;58.36;99915.72;5091403;28;20046;-75
2022/12/28 09:53:59;;;;;;;15.77;10.93;;;;;;;4.04;58.82;99676.50;5091891;28;20105;-75
2022/12/28 09:56:33;;;;;;;14.80;10.50;;;;;;;5.47;58.79;99911.13;5091361;28;20044;-75
2022/12/28 09:59:02;;;;;;;13.10;9.55;;;;;;;5.57;58.79;99920.50;5090488;28;20048;-75
2022/12/28 10:01:29;;;;;;;12.30;9.13;;;;;;;5.58;58.50;99916.97;5090933;28;20044;-75
2022/12/28 10:04:01;;;;;;;12.93;9.20;;;;;;;5.32;58.08;99867.69;5091647;28;20040;-75
2022/12/28 10:06:34;;;;;;;11.55;9.63;;;;;;;5.61;58.43;99914.28;5091969;28;20045;-75
2022/12/28 10:09:04;;;;;;;12.00;9.45;;;;;;;5.65;58.27;99918.53;5091110;28;20052;-75
2022/12/28 10:11:35;;;;;;;13.73;11.20;;;;;;;5.71;58.38;99910.50;5091367;28;20204;-75
2022/12/28 10:14:14;;;;;;;12.98;10.60;;;;;;;5.78;58.14;99912.06;5091795;28;20055;-75
2022/12/28 10:16:41;;;;;;;16.15;9.85;;;;;;;5.79;57.94;99913.78;5093126;28;20292;-75
2022/12/28 10:19:11;;;;;;;13.80;10.23;;;;;;;5.19;57.84;99798.84;5093726;28;20114;-74
2022/12/28 10:21:38;;;;;;;13.82;9.63;;;;;;;5.80;57.75;99897.09;5094345;28;20040;-74
2022/12/28 10:24:07;;;;;;;14.00;10.30;;;;;;;5.76;57.63;99896.31;5093070;28;20036;-75
2022/12/28 10:26:35;;;;;;;10.57;8.60;;;;;;;5.81;57.69;99884.81;5093747;28;20078;-75
2022/12/28 10:29:02;;;;;;;13.88;10.32;;;;;;;5.90;57.50;99885.41;5092759;28;20095;-75
2022/12/28 10:31:35;;;;;;;12.20;9.00;;;;;;;5.96;56.72;99874.72;5091741;28;20062;-75
2022/12/28 10:34:02;;;;;;;13.45;9.98;;;;;;;6.07;57.08;99858.63;5090336;28;20060;-75
2022/12/28 10:36:34;;;;;;;13.75;10.52;;;;;;;6.21;56.23;99864.34;5091950;28;20142;-75
2022/12/28 10:39:02;;;;;;;14.23;10.52;;;;;;;5.37;56.70;99722.13;5092278;28;20293;-75
2022/12/28 10:41:39;;;;;;;18.25;11.38;;;;;;;6.30;55.70;99871.13;5091700;28;20204;-76
2022/12/28 10:44:20;;;;;;;11.18;9.93;;;;;;;5.94;55.21;99808.13;5090726;28;20058;-75
2022/12/28 10:46:53;;;;;;;12.40;9.95;;;;;;;6.28;55.75;99860.63;5091426;28;20227;-75
2022/12/28 10:49:21;;;;;;;13.73;9.93;;;;;;;6.27;56.24;99858.91;5091910;28;20071;-75
2022/12/28 10:52:17;;;;;;;12.20;9.45;;;;;;;6.27;55.20;99847.53;5092052;28;20045;-75
2022/12/28 10:54:44;;;;;;;15.95;11.23;;;;;;;5.96;56.35;99795.78;5091236;28;20106;-75
2022/12/28 10:57:17;;;;;;;11.55;9.73;;;;;;;5.96;55.47;99773.88;5091706;28;20044;-75
2022/12/28 10:59:45;;;;;;;14.32;10.60;;;;;;;6.42;56.10;99833.88;5090460;28;20064;-75
2022/12/28 11:02:25;;;;;;;13.77;10.13;;;;;;;6.05;54.90;99742.03;5090990;28;20090;-75
2022/12/28 11:04:54;;;;;;;12.30;10.00;;;;;;;6.31;55.50;99757.00;5089780;28;20041;-75
2022/12/28 11:07:32;;;;;;;11.38;9.18;;;;;;;5.77;54.02;99682.38;5089122;28;20074;-75
2022/12/28 11:10:24;;;;;;;11.90;9.93;;;;;;;6.72;53.72;99814.50;5089075;28;20048;-75
2022/12/28 11:12:52;;;;;;;11.45;10.20;;;;;;;6.78;55.47;99810.81;5089145;28;20041;-75
2022/12/28 11:15:22;;;;;;;13.05;10.32;;;;;;;6.86;54.92;99787.72;5089013;28;20192;-75
2022/12/28 11:17:55;;;;;;;18.13;9.55;;;;;;;6.79;54.07;99793.22;5087736;28;20044;-75
2022/12/28 11:20:26;;;;;;;13.20;10.40;;;;;;;6.76;54.72;99796.81;5088332;28;20044;-75
2022/12/28 11:22:54;;;;;;;11.45;8.93;;;;;;;6.72;54.93;99798.69;5089450;28;20040;-75
2022/12/28 11:25:30;;;;;;;12.93;9.88;;;;;;;6.71;54.16;99801.38;5088605;28;20036;-75
2022/12/28 11:27:57;;;;;;;13.63;10.18;;;;;;;6.68;55.03;99797.06;5088382;28;20045;-76
2022/12/28 11:30:24;;;;;;;13.02;9.63;;;;;;;6.67;55.14;99790.06;5089295;28;20044;-75
2022/12/28 11:32:54;;;;;;;13.38;9.32;;;;;;;6.65;54.95;99784.00;5088682;28;20060;-75
2022/12/28 11:35:24;;;;;;;11.60;10.40;;;;;;;6.42;54.66;99747.00;5088724;28;20121;-75
2022/12/28 11:38:00;;;;;;;13.13;10.20;;;;;;;6.61;54.09;99781.50;5089157;28;20048;-75
2022/12/28 11:40:51;;;;;;;12.40;9.93;;;;;;;6.58;53.34;99769.31;5072141;28;20260;-75
2022/12/28 11:43:39;;;;;;;11.85;9.43;;;;;;;6.56;53.77;99768.50;5090481;28;20068;-75
2022/12/28 11:46:28;;;;;;;11.73;9.18;;;;;;;6.52;54.99;99764.22;5089789;28;20055;-75
2022/12/28 11:48:59;;;;;;;11.93;9.20;;;;;;;6.50;54.86;99758.16;5088050;28;20049;-75
2022/12/28 11:51:29;;;;;;;11.98;10.25;;;;;;;6.03;55.21;99671.03;5090160;28;20115;-75
2022/12/28 11:54:00;;;;;;;13.02;10.27;;;;;;;6.53;54.75;99757.19;5088255;28;20174;-75
2022/12/28 11:56:48;;;;;;;12.93;10.23;;;;;;;6.54;55.17;99754.50;5088452;28;20052;-75
2022/12/28 11:59:25;;;;;;;12.73;10.35;;;;;;;6.53;53.85;99742.25;5088357;28;20350;-75
2022/12/28 12:01:58;;;;;;;13.38;10.30;;;;;;;6.50;54.71;99741.50;5089538;28;20041;-75
2022/12/28 12:04:40;;;;;;;13.90;11.10;;;;;;;6.22;53.25;99696.78;5089883;28;20036;-75
2022/12/28 12:07:26;;;;;;;13.75;10.30;;;;;;;6.42;53.66;99736.47;5089953;28;20044;-75
2022/12/28 12:10:29;;;;;;;13.07;9.18;;;;;;;6.46;54.13;99732.84;5088429;28;20075;-75
2022/12/28 12:12:56;;;;;;;13.93;9.93;;;;;;;6.46;54.94;99726.72;5087024;28;20040;-74
2022/12/28 12:15:31;;;;;;;13.90;9.60;;;;;;;6.43;54.32;99717.13;5087536;28;20054;-74
2022/12/28 12:18:02;;;;;;;12.15;7.97;;;;;;;6.39;54.60;99713.75;5087784;28;20046;-75